sensor_id;sensor_type;location;lat;lon;timestamp;P1;durP1;ratioP1;P2;durP2;ratioP2
5553;SDS011;2800;49.528;8.666;2022-09-30T00:01:37;9.87;;;5.00;;
5553;SDS011;2800;49.528;8.666;2022-09-30T00:04:06;10.40;;;4.20;;
5553;SDS011;2800;49.528;8.666;2022-09-30T00:06:36;7.77;;;4.73;;
5553;SDS011;2800;49.528;8.666;2022-09-30T00:09:02;8.50;;;4.87;;
5553;SDS011;2800;49.528;8.666;2022-09-30T00:11:30;9.67;;;4.50;;
5553;SDS011;2800;49.528;8.666;2022-09-30T00:13:58;11.90;;;4.50;;
5553;SDS011;2800;49.528;8.666;2022-09-30T00:16:26;12.27;;;4.70;;
5553;SDS011;2800;49.528;8.666;2022-09-30T00:18:54;10.07;;;4.83;;
5553;SDS011;2800;49.528;8.666;2022-09-30T00:21:20;11.57;;;4.93;;
5553;SDS011;2800;49.528;8.666;2022-09-30T00:23:47;7.13;;;4.70;;
5553;SDS011;2800;49.528;8.666;2022-09-30T00:26:13;10.33;;;3.80;;
5553;SDS011;2800;49.528;8.666;2022-09-30T00:28:41;7.23;;;4.40;;
5553;SDS011;2800;49.528;8.666;2022-09-30T00:31:09;9.40;;;4.10;;
5553;SDS011;2800;49.528;8.666;2022-09-30T00:33:37;8.10;;;4.27;;
5553;SDS011;2800;49.528;8.666;2022-09-30T00:36:03;10.70;;;4.27;;
5553;SDS011;2800;49.528;8.666;2022-09-30T00:38:29;30.27;;;16.40;;
5553;SDS011;2800;49.528;8.666;2022-09-30T00:40:54;8.67;;;4.47;;
5553;SDS011;2800;49.528;8.666;2022-09-30T00:46:05;9.10;;;4.67;;
5553;SDS011;2800;49.528;8.666;2022-09-30T00:49:02;10.97;;;5.47;;
5553;SDS011;2800;49.528;8.666;2022-09-30T00:51:37;9.60;;;4.80;;
5553;SDS011;2800;49.528;8.666;2022-09-30T00:54:08;8.27;;;4.30;;
5553;SDS011;2800;49.528;8.666;2022-09-30T00:56:37;9.70;;;5.40;;
5553;SDS011;2800;49.528;8.666;2022-09-30T00:59:12;7.60;;;4.30;;
5553;SDS011;2800;49.528;8.666;2022-09-30T01:01:42;6.60;;;3.87;;
5553;SDS011;2800;49.528;8.666;2022-09-30T01:04:13;7.93;;;4.33;;
5553;SDS011;2800;49.528;8.666;2022-09-30T01:06:41;7.07;;;4.30;;
5553;SDS011;2800;49.528;8.666;2022-09-30T01:09:07;9.80;;;4.63;;
5553;SDS011;2800;49.528;8.666;2022-09-30T01:11:33;9.60;;;4.43;;
5553;SDS011;2800;49.528;8.666;2022-09-30T01:14:00;7.33;;;3.83;;
5553;SDS011;2800;49.528;8.666;2022-09-30T01:22:02;9.40;;;6.57;;
5553;SDS011;2800;49.528;8.666;2022-09-30T01:27:44;9.87;;;4.70;;
5553;SDS011;2800;49.528;8.666;2022-09-30T01:36:19;11.00;;;5.20;;
5553;SDS011;2800;49.528;8.666;2022-09-30T01:41:43;10.13;;;4.80;;
5553;SDS011;2800;49.528;8.666;2022-09-30T01:47:10;11.23;;;4.53;;
5553;SDS011;2800;49.528;8.666;2022-09-30T01:49:52;8.13;;;4.50;;
5553;SDS011;2800;49.528;8.666;2022-09-30T01:55:28;9.70;;;4.70;;
5553;SDS011;2800;49.528;8.666;2022-09-30T01:58:04;10.23;;;4.40;;
5553;SDS011;2800;49.528;8.666;2022-09-30T02:00:50;8.20;;;4.30;;
5553;SDS011;2800;49.528;8.666;2022-09-30T02:03:20;9.43;;;4.20;;
5553;SDS011;2800;49.528;8.666;2022-09-30T02:05:56;22.27;;;14.30;;
5553;SDS011;2800;49.528;8.666;2022-09-30T02:08:30;15.20;;;11.97;;
5553;SDS011;2800;49.528;8.666;2022-09-30T02:11:05;14.80;;;6.20;;
5553;SDS011;2800;49.528;8.666;2022-09-30T02:16:09;7.50;;;3.97;;
5553;SDS011;2800;49.528;8.666;2022-09-30T02:18:46;7.57;;;3.83;;
5553;SDS011;2800;49.528;8.666;2022-09-30T02:21:15;7.90;;;4.20;;
5553;SDS011;2800;49.528;8.666;2022-09-30T02:23:47;9.27;;;3.70;;
5553;SDS011;2800;49.528;8.666;2022-09-30T02:26:18;14.13;;;4.00;;
5553;SDS011;2800;49.528;8.666;2022-09-30T02:28:49;6.90;;;3.10;;
5553;SDS011;2800;49.528;8.666;2022-09-30T02:31:21;10.57;;;3.10;;
5553;SDS011;2800;49.528;8.666;2022-09-30T02:34:10;7.13;;;3.20;;
5553;SDS011;2800;49.528;8.666;2022-09-30T02:36:50;12.77;;;3.60;;
5553;SDS011;2800;49.528;8.666;2022-09-30T02:39:24;9.63;;;3.37;;
5553;SDS011;2800;49.528;8.666;2022-09-30T02:41:59;13.77;;;4.43;;
5553;SDS011;2800;49.528;8.666;2022-09-30T02:44:32;27.50;;;17.60;;
5553;SDS011;2800;49.528;8.666;2022-09-30T02:47:11;13.10;;;5.10;;
5553;SDS011;2800;49.528;8.666;2022-09-30T02:49:46;12.00;;;4.27;;
5553;SDS011;2800;49.528;8.666;2022-09-30T02:53:17;16.10;;;4.27;;
5553;SDS011;2800;49.528;8.666;2022-09-30T02:55:26;8.17;;;3.60;;
5553;SDS011;2800;49.528;8.666;2022-09-30T02:58:08;10.93;;;3.50;;
5553;SDS011;2800;49.528;8.666;2022-09-30T03:00:37;7.23;;;3.30;;
5553;SDS011;2800;49.528;8.666;2022-09-30T03:03:04;10.47;;;3.10;;
5553;SDS011;2800;49.528;8.666;2022-09-30T03:05:36;9.20;;;3.50;;
5553;SDS011;2800;49.528;8.666;2022-09-30T03:08:01;9.10;;;3.67;;
5553;SDS011;2800;49.528;8.666;2022-09-30T03:10:27;9.93;;;4.07;;
5553;SDS011;2800;49.528;8.666;2022-09-30T03:12:58;8.90;;;4.23;;
5553;SDS011;2800;49.528;8.666;2022-09-30T03:15:41;13.23;;;3.63;;
5553;SDS011;2800;49.528;8.666;2022-09-30T03:18:56;7.10;;;3.00;;
5553;SDS011;2800;49.528;8.666;2022-09-30T03:24:32;8.57;;;3.40;;
5553;SDS011;2800;49.528;8.666;2022-09-30T03:27:30;6.03;;;3.00;;
5553;SDS011;2800;49.528;8.666;2022-09-30T03:30:08;10.37;;;3.40;;
5553;SDS011;2800;49.528;8.666;2022-09-30T03:33:24;7.17;;;4.40;;
5553;SDS011;2800;49.528;8.666;2022-09-30T03:35:38;9.80;;;4.60;;
5553;SDS011;2800;49.528;8.666;2022-09-30T03:41:01;9.50;;;4.47;;
5553;SDS011;2800;49.528;8.666;2022-09-30T03:43:30;10.33;;;4.83;;
5553;SDS011;2800;49.528;8.666;2022-09-30T03:46:09;7.90;;;5.10;;
5553;SDS011;2800;49.528;8.666;2022-09-30T03:48:38;9.23;;;5.30;;
5553;SDS011;2800;49.528;8.666;2022-09-30T03:51:05;10.77;;;5.00;;
5553;SDS011;2800;49.528;8.666;2022-09-30T03:53:36;8.73;;;4.87;;
5553;SDS011;2800;49.528;8.666;2022-09-30T03:56:06;7.77;;;5.10;;
5553;SDS011;2800;49.528;8.666;2022-09-30T03:58:31;10.07;;;5.13;;
5553;SDS011;2800;49.528;8.666;2022-09-30T04:00:58;9.03;;;5.03;;
5553;SDS011;2800;49.528;8.666;2022-09-30T04:03:24;9.07;;;4.90;;
5553;SDS011;2800;49.528;8.666;2022-09-30T04:05:51;8.73;;;5.37;;
5553;SDS011;2800;49.528;8.666;2022-09-30T04:08:17;17.57;;;9.70;;
5553;SDS011;2800;49.528;8.666;2022-09-30T04:10:43;8.47;;;5.13;;
5553;SDS011;2800;49.528;8.666;2022-09-30T04:13:09;9.00;;;4.20;;
5553;SDS011;2800;49.528;8.666;2022-09-30T04:15:35;7.50;;;3.80;;
5553;SDS011;2800;49.528;8.666;2022-09-30T04:18:01;10.67;;;4.30;;
5553;SDS011;2800;49.528;8.666;2022-09-30T04:20:28;11.53;;;4.83;;
5553;SDS011;2800;49.528;8.666;2022-09-30T04:22:56;8.27;;;4.30;;
5553;SDS011;2800;49.528;8.666;2022-09-30T04:25:22;14.60;;;5.03;;
5553;SDS011;2800;49.528;8.666;2022-09-30T04:27:48;10.47;;;5.47;;
5553;SDS011;2800;49.528;8.666;2022-09-30T04:30:13;8.80;;;5.50;;
5553;SDS011;2800;49.528;8.666;2022-09-30T04:32:41;14.40;;;5.70;;
5553;SDS011;2800;49.528;8.666;2022-09-30T04:35:09;14.10;;;5.10;;
5553;SDS011;2800;49.528;8.666;2022-09-30T04:37:44;8.60;;;5.77;;
5553;SDS011;2800;49.528;8.666;2022-09-30T04:40:11;11.63;;;6.37;;
5553;SDS011;2800;49.528;8.666;2022-09-30T04:42:37;10.67;;;5.73;;
5553;SDS011;2800;49.528;8.666;2022-09-30T04:45:05;9.13;;;5.37;;
5553;SDS011;2800;49.528;8.666;2022-09-30T04:47:31;8.40;;;4.37;;
5553;SDS011;2800;49.528;8.666;2022-09-30T04:49:56;11.63;;;5.10;;
5553;SDS011;2800;49.528;8.666;2022-09-30T04:52:22;8.20;;;4.97;;
5553;SDS011;2800;49.528;8.666;2022-09-30T04:54:48;8.57;;;5.43;;
5553;SDS011;2800;49.528;8.666;2022-09-30T04:57:13;9.37;;;5.50;;
5553;SDS011;2800;49.528;8.666;2022-09-30T04:59:39;13.13;;;6.70;;
5553;SDS011;2800;49.528;8.666;2022-09-30T05:02:04;10.13;;;6.47;;
5553;SDS011;2800;49.528;8.666;2022-09-30T05:04:30;12.00;;;8.20;;
5553;SDS011;2800;49.528;8.666;2022-09-30T05:06:57;19.60;;;12.77;;
5553;SDS011;2800;49.528;8.666;2022-09-30T05:09:23;17.73;;;12.80;;
5553;SDS011;2800;49.528;8.666;2022-09-30T05:11:49;13.77;;;11.23;;
5553;SDS011;2800;49.528;8.666;2022-09-30T05:14:14;12.13;;;7.90;;
5553;SDS011;2800;49.528;8.666;2022-09-30T05:16:40;14.10;;;9.27;;
5553;SDS011;2800;49.528;8.666;2022-09-30T05:19:05;22.33;;;11.53;;
5553;SDS011;2800;49.528;8.666;2022-09-30T05:21:31;21.60;;;13.43;;
5553;SDS011;2800;49.528;8.666;2022-09-30T05:23:56;27.57;;;17.97;;
5553;SDS011;2800;49.528;8.666;2022-09-30T05:26:22;25.33;;;18.60;;
5553;SDS011;2800;49.528;8.666;2022-09-30T05:28:47;27.80;;;22.30;;
5553;SDS011;2800;49.528;8.666;2022-09-30T05:31:13;25.90;;;20.10;;
5553;SDS011;2800;49.528;8.666;2022-09-30T05:33:39;13.23;;;9.63;;
5553;SDS011;2800;49.528;8.666;2022-09-30T05:36:06;15.57;;;8.90;;
5553;SDS011;2800;49.528;8.666;2022-09-30T05:38:33;13.97;;;7.73;;
5553;SDS011;2800;49.528;8.666;2022-09-30T05:41:09;13.90;;;8.93;;
5553;SDS011;2800;49.528;8.666;2022-09-30T05:43:37;16.70;;;8.43;;
5553;SDS011;2800;49.528;8.666;2022-09-30T05:46:09;13.10;;;5.70;;
5553;SDS011;2800;49.528;8.666;2022-09-30T05:48:34;12.70;;;8.17;;
5553;SDS011;2800;49.528;8.666;2022-09-30T05:51:00;14.37;;;7.70;;
5553;SDS011;2800;49.528;8.666;2022-09-30T05:53:26;14.90;;;8.40;;
5553;SDS011;2800;49.528;8.666;2022-09-30T05:55:52;19.87;;;14.77;;
5553;SDS011;2800;49.528;8.666;2022-09-30T05:58:18;28.37;;;23.27;;
5553;SDS011;2800;49.528;8.666;2022-09-30T06:00:45;19.97;;;14.17;;
5553;SDS011;2800;49.528;8.666;2022-09-30T06:03:12;12.13;;;8.30;;
5553;SDS011;2800;49.528;8.666;2022-09-30T06:05:38;13.73;;;8.30;;
5553;SDS011;2800;49.528;8.666;2022-09-30T06:08:04;12.50;;;8.33;;
5553;SDS011;2800;49.528;8.666;2022-09-30T06:10:33;16.63;;;9.20;;
5553;SDS011;2800;49.528;8.666;2022-09-30T06:13:02;12.23;;;7.83;;
5553;SDS011;2800;49.528;8.666;2022-09-30T06:15:28;16.80;;;9.17;;
5553;SDS011;2800;49.528;8.666;2022-09-30T06:17:54;16.00;;;8.53;;
5553;SDS011;2800;49.528;8.666;2022-09-30T06:20:20;11.97;;;8.50;;
5553;SDS011;2800;49.528;8.666;2022-09-30T06:22:46;24.73;;;11.20;;
5553;SDS011;2800;49.528;8.666;2022-09-30T06:25:12;14.10;;;11.17;;
5553;SDS011;2800;49.528;8.666;2022-09-30T06:27:38;15.30;;;10.43;;
5553;SDS011;2800;49.528;8.666;2022-09-30T06:30:05;14.20;;;9.60;;
5553;SDS011;2800;49.528;8.666;2022-09-30T06:32:31;12.07;;;8.00;;
5553;SDS011;2800;49.528;8.666;2022-09-30T06:34:57;13.70;;;8.20;;
5553;SDS011;2800;49.528;8.666;2022-09-30T06:37:22;14.60;;;7.00;;
5553;SDS011;2800;49.528;8.666;2022-09-30T06:39:49;11.63;;;7.80;;
5553;SDS011;2800;49.528;8.666;2022-09-30T06:42:15;18.23;;;8.77;;
5553;SDS011;2800;49.528;8.666;2022-09-30T06:44:41;15.53;;;9.70;;
5553;SDS011;2800;49.528;8.666;2022-09-30T06:47:06;15.13;;;9.67;;
5553;SDS011;2800;49.528;8.666;2022-09-30T06:49:33;15.33;;;10.33;;
5553;SDS011;2800;49.528;8.666;2022-09-30T06:51:58;18.57;;;9.83;;
5553;SDS011;2800;49.528;8.666;2022-09-30T06:54:25;16.13;;;9.80;;
5553;SDS011;2800;49.528;8.666;2022-09-30T06:56:52;17.43;;;8.60;;
5553;SDS011;2800;49.528;8.666;2022-09-30T06:59:19;13.30;;;8.70;;
5553;SDS011;2800;49.528;8.666;2022-09-30T07:01:44;14.60;;;9.07;;
5553;SDS011;2800;49.528;8.666;2022-09-30T07:04:10;13.00;;;8.40;;
5553;SDS011;2800;49.528;8.666;2022-09-30T07:06:36;15.30;;;8.90;;
5553;SDS011;2800;49.528;8.666;2022-09-30T07:09:03;13.63;;;8.57;;
5553;SDS011;2800;49.528;8.666;2022-09-30T07:11:29;16.27;;;9.13;;
5553;SDS011;2800;49.528;8.666;2022-09-30T07:13:55;18.50;;;9.87;;
5553;SDS011;2800;49.528;8.666;2022-09-30T07:16:21;18.97;;;10.03;;
5553;SDS011;2800;49.528;8.666;2022-09-30T07:18:49;16.73;;;9.13;;
5553;SDS011;2800;49.528;8.666;2022-09-30T07:21:15;19.60;;;9.83;;
5553;SDS011;2800;49.528;8.666;2022-09-30T07:23:42;19.37;;;10.43;;
5553;SDS011;2800;49.528;8.666;2022-09-30T07:26:12;17.10;;;10.63;;
5553;SDS011;2800;49.528;8.666;2022-09-30T07:28:42;17.20;;;11.40;;
5553;SDS011;2800;49.528;8.666;2022-09-30T07:31:09;21.23;;;11.77;;
5553;SDS011;2800;49.528;8.666;2022-09-30T07:33:37;15.43;;;11.00;;
5553;SDS011;2800;49.528;8.666;2022-09-30T07:36:04;18.80;;;11.03;;
5553;SDS011;2800;49.528;8.666;2022-09-30T07:38:33;17.67;;;11.70;;
5553;SDS011;2800;49.528;8.666;2022-09-30T07:41:02;24.13;;;11.87;;
5553;SDS011;2800;49.528;8.666;2022-09-30T07:43:31;20.40;;;12.90;;
5553;SDS011;2800;49.528;8.666;2022-09-30T07:46:25;20.40;;;12.77;;
5553;SDS011;2800;49.528;8.666;2022-09-30T07:48:56;16.53;;;11.90;;
5553;SDS011;2800;49.528;8.666;2022-09-30T07:51:26;19.40;;;12.93;;
5553;SDS011;2800;49.528;8.666;2022-09-30T07:53:56;18.90;;;12.73;;
5553;SDS011;2800;49.528;8.666;2022-09-30T07:56:24;17.80;;;12.50;;
5553;SDS011;2800;49.528;8.666;2022-09-30T07:58:56;20.93;;;12.63;;
5553;SDS011;2800;49.528;8.666;2022-09-30T08:01:24;20.10;;;12.43;;
5553;SDS011;2800;49.528;8.666;2022-09-30T08:03:52;18.07;;;13.00;;
5553;SDS011;2800;49.528;8.666;2022-09-30T08:06:19;17.67;;;12.53;;
5553;SDS011;2800;49.528;8.666;2022-09-30T08:08:45;20.23;;;13.80;;
5553;SDS011;2800;49.528;8.666;2022-09-30T08:11:11;28.80;;;13.90;;
5553;SDS011;2800;49.528;8.666;2022-09-30T08:13:38;18.23;;;13.00;;
5553;SDS011;2800;49.528;8.666;2022-09-30T08:16:04;22.53;;;15.57;;
5553;SDS011;2800;49.528;8.666;2022-09-30T08:18:30;22.10;;;15.40;;
5553;SDS011;2800;49.528;8.666;2022-09-30T08:20:56;20.47;;;16.13;;
5553;SDS011;2800;49.528;8.666;2022-09-30T08:23:30;23.20;;;15.33;;
5553;SDS011;2800;49.528;8.666;2022-09-30T08:25:59;22.03;;;14.17;;
5553;SDS011;2800;49.528;8.666;2022-09-30T08:28:33;26.57;;;15.50;;
5553;SDS011;2800;49.528;8.666;2022-09-30T08:31:10;34.90;;;15.97;;
5553;SDS011;2800;49.528;8.666;2022-09-30T08:33:37;25.40;;;17.43;;
5553;SDS011;2800;49.528;8.666;2022-09-30T08:36:07;22.73;;;15.10;;
5553;SDS011;2800;49.528;8.666;2022-09-30T08:38:38;23.90;;;15.67;;
5553;SDS011;2800;49.528;8.666;2022-09-30T08:41:20;25.63;;;15.23;;
5553;SDS011;2800;49.528;8.666;2022-09-30T08:51:46;21.73;;;14.40;;
5553;SDS011;2800;49.528;8.666;2022-09-30T08:54:15;22.77;;;14.33;;
5553;SDS011;2800;49.528;8.666;2022-09-30T08:56:44;24.07;;;15.47;;
5553;SDS011;2800;49.528;8.666;2022-09-30T09:04:39;24.30;;;15.10;;
5553;SDS011;2800;49.528;8.666;2022-09-30T09:07:28;22.40;;;14.67;;
5553;SDS011;2800;49.528;8.666;2022-09-30T09:12:55;24.27;;;13.80;;
5553;SDS011;2800;49.528;8.666;2022-09-30T09:18:38;16.17;;;12.50;;
5553;SDS011;2800;49.528;8.666;2022-09-30T09:21:22;18.07;;;14.10;;
5553;SDS011;2800;49.528;8.666;2022-09-30T09:23:56;19.07;;;13.17;;
5553;SDS011;2800;49.528;8.666;2022-09-30T09:26:26;18.30;;;12.93;;
5553;SDS011;2800;49.528;8.666;2022-09-30T09:31:55;19.67;;;12.83;;
5553;SDS011;2800;49.528;8.666;2022-09-30T09:34:23;15.70;;;11.93;;
5553;SDS011;2800;49.528;8.666;2022-09-30T09:39:43;14.23;;;12.10;;
5553;SDS011;2800;49.528;8.666;2022-09-30T09:47:40;17.17;;;9.83;;
5553;SDS011;2800;49.528;8.666;2022-09-30T09:50:19;16.23;;;10.33;;
5553;SDS011;2800;49.528;8.666;2022-09-30T09:53:12;15.27;;;9.63;;
5553;SDS011;2800;49.528;8.666;2022-09-30T09:55:55;16.27;;;11.40;;
5553;SDS011;2800;49.528;8.666;2022-09-30T09:58:24;16.43;;;10.60;;
5553;SDS011;2800;49.528;8.666;2022-09-30T10:00:50;13.47;;;10.30;;
5553;SDS011;2800;49.528;8.666;2022-09-30T10:03:17;16.50;;;11.20;;
5553;SDS011;2800;49.528;8.666;2022-09-30T10:05:57;15.07;;;10.30;;
5553;SDS011;2800;49.528;8.666;2022-09-30T10:08:23;14.37;;;10.40;;
5553;SDS011;2800;49.528;8.666;2022-09-30T10:10:51;13.73;;;10.07;;
5553;SDS011;2800;49.528;8.666;2022-09-30T10:13:24;18.57;;;10.70;;
5553;SDS011;2800;49.528;8.666;2022-09-30T10:16:02;14.73;;;11.00;;
5553;SDS011;2800;49.528;8.666;2022-09-30T10:20:58;16.00;;;10.27;;
5553;SDS011;2800;49.528;8.666;2022-09-30T10:23:27;14.47;;;9.63;;
5553;SDS011;2800;49.528;8.666;2022-09-30T10:31:33;11.60;;;8.00;;
5553;SDS011;2800;49.528;8.666;2022-09-30T10:34:07;17.30;;;12.03;;
5553;SDS011;2800;49.528;8.666;2022-09-30T10:36:54;14.20;;;8.40;;
5553;SDS011;2800;49.528;8.666;2022-09-30T10:39:22;12.30;;;9.30;;
5553;SDS011;2800;49.528;8.666;2022-09-30T10:42:26;14.67;;;9.30;;
5553;SDS011;2800;49.528;8.666;2022-09-30T10:44:52;12.93;;;7.60;;
5553;SDS011;2800;49.528;8.666;2022-09-30T10:47:21;11.53;;;7.10;;
5553;SDS011;2800;49.528;8.666;2022-09-30T10:49:51;9.30;;;6.27;;
5553;SDS011;2800;49.528;8.666;2022-09-30T10:52:36;14.03;;;7.27;;
5553;SDS011;2800;49.528;8.666;2022-09-30T10:55:24;14.80;;;6.83;;
5553;SDS011;2800;49.528;8.666;2022-09-30T10:57:54;10.70;;;6.60;;
5553;SDS011;2800;49.528;8.666;2022-09-30T11:00:27;11.80;;;6.93;;
5553;SDS011;2800;49.528;8.666;2022-09-30T11:03:04;12.57;;;7.17;;
5553;SDS011;2800;49.528;8.666;2022-09-30T11:05:42;10.90;;;6.77;;
5553;SDS011;2800;49.528;8.666;2022-09-30T11:10:47;9.80;;;6.70;;
5553;SDS011;2800;49.528;8.666;2022-09-30T11:13:41;11.47;;;7.10;;
5553;SDS011;2800;49.528;8.666;2022-09-30T11:16:32;11.03;;;7.73;;
5553;SDS011;2800;49.528;8.666;2022-09-30T11:19:21;13.07;;;7.17;;
5553;SDS011;2800;49.528;8.666;2022-09-30T11:21:56;11.73;;;7.30;;
5553;SDS011;2800;49.528;8.666;2022-09-30T11:24:39;12.30;;;7.70;;
5553;SDS011;2800;49.528;8.666;2022-09-30T11:33:12;14.33;;;9.30;;
5553;SDS011;2800;49.528;8.666;2022-09-30T11:36:08;15.73;;;10.40;;
5553;SDS011;2800;49.528;8.666;2022-09-30T11:38:58;17.20;;;9.10;;
5553;SDS011;2800;49.528;8.666;2022-09-30T11:41:35;15.40;;;11.03;;
5553;SDS011;2800;49.528;8.666;2022-09-30T11:54:40;12.40;;;8.33;;
5553;SDS011;2800;49.528;8.666;2022-09-30T11:57:36;14.37;;;10.00;;
5553;SDS011;2800;49.528;8.666;2022-09-30T12:00:15;16.93;;;10.67;;
5553;SDS011;2800;49.528;8.666;2022-09-30T12:02:43;22.83;;;10.60;;
5553;SDS011;2800;49.528;8.666;2022-09-30T12:05:31;15.83;;;9.63;;
5553;SDS011;2800;49.528;8.666;2022-09-30T12:08:09;19.10;;;10.70;;
5553;SDS011;2800;49.528;8.666;2022-09-30T12:10:47;15.07;;;9.93;;
5553;SDS011;2800;49.528;8.666;2022-09-30T12:13:19;19.60;;;10.80;;
5553;SDS011;2800;49.528;8.666;2022-09-30T12:15:49;22.17;;;11.07;;
5553;SDS011;2800;49.528;8.666;2022-09-30T12:18:20;16.77;;;9.37;;
5553;SDS011;2800;49.528;8.666;2022-09-30T12:20:54;14.37;;;9.00;;
5553;SDS011;2800;49.528;8.666;2022-09-30T12:23:26;15.70;;;10.27;;
5553;SDS011;2800;49.528;8.666;2022-09-30T12:25:55;15.03;;;10.47;;
5553;SDS011;2800;49.528;8.666;2022-09-30T12:28:30;14.93;;;9.40;;
5553;SDS011;2800;49.528;8.666;2022-09-30T12:31:31;9.67;;;5.63;;
5553;SDS011;2800;49.528;8.666;2022-09-30T12:45:33;10.10;;;5.20;;
5553;SDS011;2800;49.528;8.666;2022-09-30T12:48:10;11.10;;;6.13;;
5553;SDS011;2800;49.528;8.666;2022-09-30T12:50:49;11.17;;;6.37;;
5553;SDS011;2800;49.528;8.666;2022-09-30T12:56:02;17.57;;;8.70;;
5553;SDS011;2800;49.528;8.666;2022-09-30T12:58:31;13.47;;;7.87;;
5553;SDS011;2800;49.528;8.666;2022-09-30T13:01:05;16.40;;;7.17;;
5553;SDS011;2800;49.528;8.666;2022-09-30T13:06:15;10.37;;;6.63;;
5553;SDS011;2800;49.528;8.666;2022-09-30T13:08:47;12.37;;;7.60;;
5553;SDS011;2800;49.528;8.666;2022-09-30T13:19:31;13.50;;;7.97;;
5553;SDS011;2800;49.528;8.666;2022-09-30T13:27:40;11.37;;;7.90;;
5553;SDS011;2800;49.528;8.666;2022-09-30T13:40:42;11.80;;;7.27;;
5553;SDS011;2800;49.528;8.666;2022-09-30T13:43:15;11.57;;;6.37;;
5553;SDS011;2800;49.528;8.666;2022-09-30T13:45:46;11.90;;;6.97;;
5553;SDS011;2800;49.528;8.666;2022-09-30T13:48:14;16.40;;;6.93;;
5553;SDS011;2800;49.528;8.666;2022-09-30T13:50:51;10.37;;;5.90;;
5553;SDS011;2800;49.528;8.666;2022-09-30T13:55:47;13.03;;;5.60;;
5553;SDS011;2800;49.528;8.666;2022-09-30T14:01:28;9.43;;;4.77;;
5553;SDS011;2800;49.528;8.666;2022-09-30T14:09:44;9.00;;;4.87;;
5553;SDS011;2800;49.528;8.666;2022-09-30T14:21:24;11.50;;;4.10;;
5553;SDS011;2800;49.528;8.666;2022-09-30T14:24:00;7.57;;;4.23;;
5553;SDS011;2800;49.528;8.666;2022-09-30T14:31:44;8.43;;;3.30;;
5553;SDS011;2800;49.528;8.666;2022-09-30T14:34:11;8.00;;;3.33;;
5553;SDS011;2800;49.528;8.666;2022-09-30T14:36:38;6.80;;;3.17;;
5553;SDS011;2800;49.528;8.666;2022-09-30T14:39:05;8.50;;;3.20;;
5553;SDS011;2800;49.528;8.666;2022-09-30T14:41:39;8.33;;;3.80;;
5553;SDS011;2800;49.528;8.666;2022-09-30T14:44:10;6.60;;;3.13;;
5553;SDS011;2800;49.528;8.666;2022-09-30T14:46:42;5.70;;;3.20;;
5553;SDS011;2800;49.528;8.666;2022-09-30T14:49:15;7.10;;;3.00;;
5553;SDS011;2800;49.528;8.666;2022-09-30T14:51:44;5.90;;;3.20;;
5553;SDS011;2800;49.528;8.666;2022-09-30T14:54:16;6.23;;;3.07;;
5553;SDS011;2800;49.528;8.666;2022-09-30T14:56:46;9.07;;;3.20;;
5553;SDS011;2800;49.528;8.666;2022-09-30T14:59:19;6.53;;;3.03;;
5553;SDS011;2800;49.528;8.666;2022-09-30T15:01:52;10.00;;;2.80;;
5553;SDS011;2800;49.528;8.666;2022-09-30T15:04:25;5.93;;;2.60;;
5553;SDS011;2800;49.528;8.666;2022-09-30T15:06:54;6.70;;;2.80;;
5553;SDS011;2800;49.528;8.666;2022-09-30T15:09:27;6.13;;;2.90;;
5553;SDS011;2800;49.528;8.666;2022-09-30T15:14:30;7.43;;;2.80;;
5553;SDS011;2800;49.528;8.666;2022-09-30T15:16:57;9.30;;;3.20;;
5553;SDS011;2800;49.528;8.666;2022-09-30T15:19:27;6.60;;;3.40;;
5553;SDS011;2800;49.528;8.666;2022-09-30T15:22:00;6.83;;;3.57;;
5553;SDS011;2800;49.528;8.666;2022-09-30T15:24:28;11.13;;;4.40;;
5553;SDS011;2800;49.528;8.666;2022-09-30T15:26:56;5.67;;;3.30;;
5553;SDS011;2800;49.528;8.666;2022-09-30T15:29:23;6.97;;;3.40;;
5553;SDS011;2800;49.528;8.666;2022-09-30T15:32:00;6.50;;;3.60;;
5553;SDS011;2800;49.528;8.666;2022-09-30T15:34:45;8.80;;;3.33;;
5553;SDS011;2800;49.528;8.666;2022-09-30T15:37:18;7.20;;;3.20;;
5553;SDS011;2800;49.528;8.666;2022-09-30T15:39:49;8.07;;;3.80;;
5553;SDS011;2800;49.528;8.666;2022-09-30T15:42:35;7.20;;;3.60;;
5553;SDS011;2800;49.528;8.666;2022-09-30T15:45:04;5.20;;;3.03;;
5553;SDS011;2800;49.528;8.666;2022-09-30T15:53:31;7.00;;;3.30;;
5553;SDS011;2800;49.528;8.666;2022-09-30T15:56:14;7.63;;;3.70;;
5553;SDS011;2800;49.528;8.666;2022-09-30T15:58:55;7.37;;;3.73;;
5553;SDS011;2800;49.528;8.666;2022-09-30T16:01:31;7.60;;;3.20;;
5553;SDS011;2800;49.528;8.666;2022-09-30T16:04:01;7.33;;;3.50;;
5553;SDS011;2800;49.528;8.666;2022-09-30T16:06:35;8.30;;;3.60;;
5553;SDS011;2800;49.528;8.666;2022-09-30T16:14:27;7.70;;;4.13;;
5553;SDS011;2800;49.528;8.666;2022-09-30T16:16:56;7.37;;;3.63;;
5553;SDS011;2800;49.528;8.666;2022-09-30T16:19:24;9.43;;;4.27;;
5553;SDS011;2800;49.528;8.666;2022-09-30T16:21:51;5.90;;;3.33;;
5553;SDS011;2800;49.528;8.666;2022-09-30T16:26:56;22.70;;;13.83;;
5553;SDS011;2800;49.528;8.666;2022-09-30T16:29:25;19.63;;;13.10;;
5553;SDS011;2800;49.528;8.666;2022-09-30T16:31:52;12.20;;;6.33;;
5553;SDS011;2800;49.528;8.666;2022-09-30T16:34:23;15.90;;;4.23;;
5553;SDS011;2800;49.528;8.666;2022-09-30T16:36:52;8.03;;;3.97;;
5553;SDS011;2800;49.528;8.666;2022-09-30T16:39:19;8.23;;;4.47;;
5553;SDS011;2800;49.528;8.666;2022-09-30T16:41:45;12.30;;;3.70;;
5553;SDS011;2800;49.528;8.666;2022-09-30T16:44:10;6.10;;;3.33;;
5553;SDS011;2800;49.528;8.666;2022-09-30T16:46:37;8.73;;;3.63;;
5553;SDS011;2800;49.528;8.666;2022-09-30T16:49:13;6.67;;;3.10;;
5553;SDS011;2800;49.528;8.666;2022-09-30T16:51:40;6.83;;;3.50;;
5553;SDS011;2800;49.528;8.666;2022-09-30T16:54:07;6.63;;;3.17;;
5553;SDS011;2800;49.528;8.666;2022-09-30T16:56:33;9.03;;;3.27;;
5553;SDS011;2800;49.528;8.666;2022-09-30T16:58:59;7.60;;;4.63;;
5553;SDS011;2800;49.528;8.666;2022-09-30T17:01:24;11.27;;;6.23;;
5553;SDS011;2800;49.528;8.666;2022-09-30T17:03:53;43.33;;;23.17;;
5553;SDS011;2800;49.528;8.666;2022-09-30T17:06:25;56.73;;;31.00;;
5553;SDS011;2800;49.528;8.666;2022-09-30T17:08:52;9.80;;;5.60;;
5553;SDS011;2800;49.528;8.666;2022-09-30T17:11:18;8.83;;;4.37;;
5553;SDS011;2800;49.528;8.666;2022-09-30T17:13:50;14.43;;;6.13;;
5553;SDS011;2800;49.528;8.666;2022-09-30T17:16:16;14.20;;;8.53;;
5553;SDS011;2800;49.528;8.666;2022-09-30T17:18:42;13.83;;;9.40;;
5553;SDS011;2800;49.528;8.666;2022-09-30T17:21:07;16.27;;;10.63;;
5553;SDS011;2800;49.528;8.666;2022-09-30T17:23:33;20.90;;;10.10;;
5553;SDS011;2800;49.528;8.666;2022-09-30T17:25:58;14.97;;;9.20;;
5553;SDS011;2800;49.528;8.666;2022-09-30T17:28:24;12.13;;;7.00;;
5553;SDS011;2800;49.528;8.666;2022-09-30T17:30:49;14.50;;;8.43;;
5553;SDS011;2800;49.528;8.666;2022-09-30T17:33:15;10.40;;;6.20;;
5553;SDS011;2800;49.528;8.666;2022-09-30T17:35:43;13.33;;;7.80;;
5553;SDS011;2800;49.528;8.666;2022-09-30T17:38:10;19.73;;;12.30;;
5553;SDS011;2800;49.528;8.666;2022-09-30T17:40:36;18.70;;;10.50;;
5553;SDS011;2800;49.528;8.666;2022-09-30T17:43:22;14.90;;;9.63;;
5553;SDS011;2800;49.528;8.666;2022-09-30T17:45:48;15.00;;;9.90;;
5553;SDS011;2800;49.528;8.666;2022-09-30T17:48:15;12.53;;;8.53;;
5553;SDS011;2800;49.528;8.666;2022-09-30T17:50:42;16.83;;;9.60;;
5553;SDS011;2800;49.528;8.666;2022-09-30T17:53:10;12.53;;;7.67;;
5553;SDS011;2800;49.528;8.666;2022-09-30T17:55:38;14.03;;;8.57;;
5553;SDS011;2800;49.528;8.666;2022-09-30T17:58:08;22.30;;;9.03;;
5553;SDS011;2800;49.528;8.666;2022-09-30T18:00:36;13.47;;;8.27;;
5553;SDS011;2800;49.528;8.666;2022-09-30T18:03:02;14.43;;;8.37;;
5553;SDS011;2800;49.528;8.666;2022-09-30T18:05:29;17.43;;;9.30;;
5553;SDS011;2800;49.528;8.666;2022-09-30T18:07:55;11.87;;;6.53;;
5553;SDS011;2800;49.528;8.666;2022-09-30T18:10:21;15.13;;;7.40;;
5553;SDS011;2800;49.528;8.666;2022-09-30T18:12:48;14.90;;;8.90;;
5553;SDS011;2800;49.528;8.666;2022-09-30T18:15:15;19.10;;;11.00;;
5553;SDS011;2800;49.528;8.666;2022-09-30T18:17:42;18.23;;;8.67;;
5553;SDS011;2800;49.528;8.666;2022-09-30T18:20:07;15.93;;;8.83;;
5553;SDS011;2800;49.528;8.666;2022-09-30T18:22:33;27.83;;;18.10;;